createdAt,value
2023-01-05T05:00:29.822Z,12.02
2023-01-05T05:01:29.941Z,11.96
2023-01-05T05:02:29.985Z,12.04
2023-01-05T05:03:33.171Z,12.04
2023-01-05T05:04:29.717Z,12.02
2023-01-05T05:05:29.703Z,12.01
2023-01-05T05:06:29.713Z,12.02
2023-01-05T05:07:29.703Z,12.05
2023-01-05T05:08:29.681Z,11.99
2023-01-05T05:09:29.658Z,11.98
2023-01-05T05:10:29.656Z,12.02
2023-01-05T05:11:34.672Z,12.07
2023-01-05T05:12:29.629Z,12.01
2023-01-05T05:13:29.616Z,12.02
2023-01-05T05:14:29.608Z,12.02
2023-01-05T05:15:29.601Z,11.99
2023-01-05T05:16:29.695Z,11.86
2023-01-05T05:17:29.567Z,11.98
2023-01-05T05:18:29.559Z,12.04
2023-01-05T05:19:29.544Z,12.01
2023-01-05T05:20:29.560Z,11.95
2023-01-05T05:21:29.565Z,11.99
2023-01-05T05:22:34.542Z,11.95
2023-01-05T05:23:29.503Z,12.07
2023-01-05T05:24:29.492Z,12.02
2023-01-05T05:25:29.486Z,11.88
2023-01-05T05:26:29.625Z,11.99
2023-01-05T05:27:29.475Z,11.99
2023-01-05T05:28:29.464Z,11.94
2023-01-05T05:29:29.433Z,11.94
2023-01-05T05:30:29.423Z,11.95
2023-01-05T05:31:29.450Z,11.88
2023-01-05T05:32:29.428Z,11.96
2023-01-05T05:33:34.417Z,11.90
2023-01-05T05:34:29.385Z,12.05
2023-01-05T05:35:29.370Z,11.91
2023-01-05T05:36:29.377Z,11.98
2023-01-05T05:37:29.342Z,11.91
2023-01-05T05:38:29.377Z,11.95
2023-01-05T05:39:29.339Z,11.95
2023-01-05T05:40:29.336Z,11.95
2023-01-05T05:41:29.349Z,11.99
2023-01-05T05:42:29.301Z,11.95
2023-01-05T05:43:29.281Z,11.90
2023-01-05T05:44:34.296Z,11.91
2023-01-05T05:45:29.260Z,11.91
2023-01-05T05:46:29.370Z,11.98
2023-01-05T05:47:29.235Z,11.91
2023-01-05T05:48:29.328Z,11.85
2023-01-05T05:49:29.231Z,11.85
2023-01-05T05:50:29.203Z,11.91
2023-01-05T05:51:29.211Z,11.88
2023-01-05T05:52:29.177Z,11.96
2023-01-05T05:53:29.172Z,11.94
2023-01-05T05:54:30.179Z,11.90
2023-01-05T05:55:34.201Z,11.94
2023-01-05T05:56:29.158Z,11.88
2023-01-05T05:57:29.138Z,11.88
2023-01-05T05:58:29.114Z,11.88
2023-01-05T05:59:29.104Z,11.83
2023-01-05T06:00:29.094Z,11.90
2023-01-05T06:01:29.355Z,11.86
2023-01-05T06:02:29.320Z,11.90
2023-01-05T06:03:29.127Z,11.82
2023-01-05T06:04:29.102Z,11.79
2023-01-05T06:05:29.038Z,11.79
2023-01-05T06:06:34.080Z,11.72
2023-01-05T06:07:29.010Z,11.78
2023-01-05T06:08:29.000Z,11.82
2023-01-05T06:09:28.988Z,11.83
2023-01-05T06:10:28.996Z,11.82
2023-01-05T06:11:28.987Z,11.76
2023-01-05T06:12:28.968Z,11.76
2023-01-05T06:13:29.005Z,11.76
2023-01-05T06:14:28.936Z,11.76
2023-01-05T06:15:28.921Z,11.65
2023-01-05T06:16:28.963Z,11.76
2023-01-05T06:17:33.928Z,11.75
2023-01-05T06:18:28.886Z,11.78
2023-01-05T06:19:28.879Z,11.78
2023-01-05T06:20:28.884Z,11.80
2023-01-05T06:21:28.852Z,11.69
2023-01-05T06:22:28.854Z,11.72
2023-01-05T06:23:28.872Z,11.67
2023-01-05T06:24:28.821Z,11.67
2023-01-05T06:25:28.807Z,11.76
2023-01-05T06:26:28.826Z,11.73
2023-01-05T06:27:28.851Z,11.69
2023-01-05T06:28:33.804Z,11.78
2023-01-05T06:29:28.771Z,11.80
2023-01-05T06:30:29.748Z,11.76
2023-01-05T06:31:29.510Z,11.80
2023-01-05T06:32:29.118Z,11.64
2023-01-05T06:33:28.725Z,11.78
2023-01-05T06:34:28.720Z,11.65
2023-01-05T06:35:28.697Z,11.70
2023-01-05T06:36:28.717Z,11.62
2023-01-05T06:37:28.685Z,11.62
2023-01-05T06:38:28.686Z,11.67
2023-01-05T06:39:33.697Z,11.69
2023-01-05T06:40:28.675Z,11.57
2023-01-05T06:41:28.667Z,11.67
2023-01-05T06:42:28.667Z,11.69
2023-01-05T06:43:28.610Z,11.67
2023-01-05T06:44:28.597Z,11.65
2023-01-05T06:45:29.615Z,11.65
2023-01-05T06:46:28.579Z,11.65
2023-01-05T06:47:28.568Z,11.65
2023-01-05T06:48:28.558Z,11.64
2023-01-05T06:49:28.543Z,11.62
2023-01-05T06:50:33.567Z,11.64
2023-01-05T06:51:28.524Z,11.64
2023-01-05T06:52:28.558Z,11.60
2023-01-05T06:53:28.493Z,11.67
2023-01-05T06:54:28.494Z,11.58
2023-01-05T06:55:28.491Z,11.54
2023-01-05T06:56:28.489Z,11.55
2023-01-05T06:57:28.462Z,11.57
2023-01-05T06:58:28.438Z,11.57
2023-01-05T06:59:28.428Z,11.61
2023-01-05T07:00:28.564Z,11.62
2023-01-05T07:01:33.504Z,11.55
2023-01-05T07:02:28.415Z,11.55
2023-01-05T07:03:28.407Z,11.55
2023-01-05T07:04:28.382Z,11.57
2023-01-05T07:05:28.382Z,11.51
2023-01-05T07:06:28.354Z,11.55
2023-01-05T07:07:29.348Z,11.47
2023-01-05T07:08:28.479Z,11.51
2023-01-05T07:09:28.318Z,11.47
2023-01-05T07:10:28.429Z,11.51
2023-01-05T07:11:28.322Z,11.55
2023-01-05T07:12:33.312Z,11.51
2023-01-05T07:13:28.274Z,11.49
2023-01-05T07:14:28.282Z,11.52
2023-01-05T07:15:28.266Z,11.54
2023-01-05T07:16:28.351Z,11.60
2023-01-05T07:17:28.240Z,11.52
2023-01-05T07:18:28.223Z,11.57
2023-01-05T07:19:28.203Z,11.49
2023-01-05T07:20:28.261Z,11.57
2023-01-05T07:21:28.186Z,11.52
2023-01-05T07:22:28.190Z,11.62
2023-01-05T07:23:33.203Z,11.69
2023-01-05T07:24:28.162Z,11.57
2023-01-05T07:25:28.166Z,11.58
2023-01-05T07:26:28.203Z,11.58
2023-01-05T07:27:28.153Z,11.54
2023-01-05T07:28:28.137Z,11.51
2023-01-05T07:29:28.096Z,11.55
2023-01-05T07:30:28.176Z,11.61
2023-01-05T07:31:28.104Z,11.60
2023-01-05T07:32:28.071Z,11.61
2023-01-05T07:33:28.051Z,11.62
2023-01-05T07:34:33.075Z,11.52
2023-01-05T07:35:28.034Z,11.62
2023-01-05T07:36:28.021Z,11.57
2023-01-05T07:37:28.029Z,11.61
2023-01-05T07:38:27.999Z,11.55
2023-01-05T07:39:28.006Z,11.60
2023-01-05T07:40:28.048Z,11.60
2023-01-05T07:41:27.964Z,11.57
2023-01-05T07:42:27.964Z,11.64
2023-01-05T07:43:27.936Z,11.57
2023-01-05T07:44:27.938Z,11.60
2023-01-05T07:45:33.004Z,11.61
2023-01-05T07:46:27.906Z,11.62
2023-01-05T07:47:27.906Z,11.61
2023-01-05T07:48:27.887Z,11.61
2023-01-05T07:49:27.890Z,11.57
2023-01-05T07:50:27.883Z,11.65
2023-01-05T07:51:27.851Z,11.67
2023-01-05T07:52:27.856Z,11.64
2023-01-05T07:53:27.833Z,11.61
2023-01-05T07:54:27.820Z,11.69
2023-01-05T07:55:27.850Z,11.69
2023-01-05T07:56:32.846Z,11.70
2023-01-05T07:57:27.812Z,11.80
2023-01-05T07:58:27.786Z,11.91
2023-01-05T07:59:27.880Z,11.83
2023-01-05T08:00:27.763Z,11.96
2023-01-05T08:01:27.839Z,11.80
2023-01-05T08:02:33.865Z,11.83
2023-01-05T08:03:28.725Z,11.91
2023-01-05T08:04:28.748Z,11.90
2023-01-05T08:05:27.691Z,11.94
2023-01-05T08:06:27.690Z,11.94
2023-01-05T08:07:32.782Z,11.88
2023-01-05T08:08:27.670Z,11.96
2023-01-05T08:09:27.643Z,11.86
2023-01-05T08:10:27.643Z,12.02
2023-01-05T08:11:27.648Z,12.04
2023-01-05T08:12:27.625Z,11.98
2023-01-05T08:13:27.602Z,12.02
2023-01-05T08:14:27.599Z,12.07
2023-01-05T08:15:27.617Z,12.01
2023-01-05T08:16:27.622Z,12.09
2023-01-05T08:17:27.583Z,12.07
2023-01-05T08:18:32.572Z,12.02
2023-01-05T08:19:27.556Z,11.96
2023-01-05T08:20:27.546Z,12.05
2023-01-05T08:21:27.516Z,12.02
2023-01-05T08:22:27.501Z,11.96
2023-01-05T08:23:27.600Z,11.99
2023-01-05T08:24:27.487Z,12.05
2023-01-05T08:25:27.469Z,11.95
2023-01-05T08:26:27.509Z,12.04
2023-01-05T08:27:27.470Z,12.04
2023-01-05T08:28:34.981Z,12.07
2023-01-05T08:29:33.454Z,12.02
2023-01-05T08:30:27.414Z,12.07
2023-01-05T08:31:27.502Z,12.09
2023-01-05T08:32:27.389Z,12.01
2023-01-05T08:33:27.434Z,12.10
2023-01-05T08:34:32.869Z,12.13
2023-01-05T08:35:28.360Z,12.13
2023-01-05T08:36:27.372Z,12.13
2023-01-05T08:37:27.345Z,12.05
2023-01-05T08:38:27.331Z,11.99
2023-01-05T08:39:27.344Z,12.12
2023-01-05T08:40:32.333Z,12.02
2023-01-05T08:41:27.288Z,12.13
2023-01-05T08:42:27.275Z,12.13
2023-01-05T08:43:27.343Z,12.09
2023-01-05T08:44:27.260Z,12.09
2023-01-05T08:45:27.244Z,12.07
2023-01-05T08:46:27.293Z,12.16
2023-01-05T08:47:28.618Z,12.12
2023-01-05T08:48:27.253Z,12.14
2023-01-05T08:49:27.257Z,12.13
2023-01-05T08:50:27.208Z,12.12
2023-01-05T08:51:32.202Z,12.17
2023-01-05T08:52:27.178Z,12.14
2023-01-05T08:53:27.176Z,12.13
2023-01-05T08:54:27.190Z,12.16
2023-01-05T08:55:27.163Z,12.13
2023-01-05T08:56:29.544Z,12.14
2023-01-05T08:57:27.184Z,12.13
2023-01-05T08:58:28.132Z,12.16
2023-01-05T08:59:27.130Z,12.13
2023-01-05T09:00:27.077Z,12.13
2023-01-05T09:01:27.193Z,12.10
2023-01-05T09:02:32.236Z,12.23
2023-01-05T09:03:27.148Z,12.19
2023-01-05T09:04:27.077Z,12.17
2023-01-05T09:05:27.021Z,12.20
2023-01-05T09:06:27.052Z,12.12
2023-01-05T09:07:27.006Z,12.13
2023-01-05T09:08:27.000Z,12.09
2023-01-05T09:09:26.984Z,12.07
2023-01-05T09:10:26.969Z,12.07
2023-01-05T09:11:26.957Z,12.20
2023-01-05T09:12:32.786Z,12.12
2023-01-05T09:13:32.993Z,12.16
2023-01-05T09:14:27.924Z,12.13
2023-01-05T09:15:26.945Z,12.23
2023-01-05T09:17:27.922Z,12.27
2023-01-05T09:18:26.929Z,12.28
2023-01-05T09:19:26.873Z,12.28
2023-01-05T09:20:26.870Z,12.23
2023-01-05T09:21:26.852Z,12.32
2023-01-05T09:22:26.857Z,12.24
2023-01-05T09:23:26.844Z,12.32
2023-01-05T09:24:31.853Z,12.31
2023-01-05T09:25:26.803Z,12.39
2023-01-05T09:26:26.797Z,12.27
2023-01-05T09:27:27.512Z,12.34
2023-01-05T09:28:26.855Z,12.41
2023-01-05T09:29:26.762Z,12.38
2023-01-05T09:30:26.819Z,12.46
2023-01-05T09:31:26.825Z,12.45
2023-01-05T09:32:26.723Z,12.46
2023-01-05T09:33:26.749Z,12.46
2023-01-05T09:34:26.710Z,12.49
2023-01-05T09:35:31.731Z,12.46
2023-01-05T09:36:26.681Z,12.46
2023-01-05T09:37:26.668Z,12.41
2023-01-05T09:38:26.714Z,12.45
2023-01-05T09:39:26.653Z,12.46
2023-01-05T09:40:26.632Z,12.45
2023-01-05T09:41:26.652Z,12.50
2023-01-05T09:42:26.612Z,12.39
2023-01-05T09:43:26.632Z,12.49
2023-01-05T09:44:26.629Z,12.46
2023-01-05T09:45:26.614Z,12.49
2023-01-05T09:46:31.765Z,12.41
2023-01-05T09:47:26.556Z,12.45
2023-01-05T09:48:26.545Z,12.41
2023-01-05T09:49:26.531Z,12.49
2023-01-05T09:50:26.538Z,12.49
2023-01-05T09:51:26.531Z,12.47
2023-01-05T09:52:26.493Z,12.46
2023-01-05T09:53:26.503Z,12.49
2023-01-05T09:54:26.474Z,12.50
2023-01-05T09:55:26.467Z,12.45
2023-01-05T09:56:59.053Z,12.50
2023-01-05T09:57:32.461Z,12.45
2023-01-05T09:58:30.085Z,12.41
2023-01-05T09:59:26.421Z,12.46
2023-01-05T10:00:26.429Z,12.42
2023-01-05T10:01:26.442Z,12.45
2023-01-05T10:02:26.531Z,12.47
2023-01-05T10:04:30.733Z,12.46
2023-01-05T10:05:26.521Z,12.52
2023-01-05T10:06:26.336Z,12.57
2023-01-05T10:07:26.348Z,12.59
2023-01-05T10:08:31.371Z,12.62
2023-01-05T10:09:26.317Z,12.62
2023-01-05T10:10:30.423Z,12.60
2023-01-05T10:11:26.284Z,12.67
2023-01-05T10:12:26.269Z,12.67
2023-01-05T10:13:26.284Z,12.68
2023-01-05T10:14:26.262Z,12.70
2023-01-05T10:15:26.354Z,12.78
2023-01-05T10:16:29.675Z,12.86
2023-01-05T10:17:43.615Z,12.79
2023-01-05T10:18:27.325Z,12.79
2023-01-05T10:19:31.216Z,12.87
2023-01-05T10:20:26.249Z,12.89
2023-01-05T10:21:26.175Z,12.92
2023-01-05T10:22:26.177Z,12.95
2023-01-05T10:23:26.201Z,12.93
2023-01-05T10:24:26.137Z,12.90
2023-01-05T10:25:26.126Z,12.90
2023-01-05T10:26:26.128Z,12.85
2023-01-05T10:27:26.775Z,12.85
2023-01-05T10:28:26.110Z,12.86
2023-01-05T10:29:26.081Z,12.82
2023-01-05T10:30:31.097Z,12.86
2023-01-05T10:31:26.100Z,12.87
2023-01-05T10:32:26.127Z,12.79
2023-01-05T10:33:35.444Z,12.87
2023-01-05T10:34:27.174Z,12.90
2023-01-05T10:37:06.005Z,12.82
2023-01-05T10:37:27.009Z,12.87
2023-01-05T10:38:26.002Z,12.86
2023-01-05T10:39:25.979Z,12.83
2023-01-05T10:40:25.959Z,12.86
2023-01-05T10:41:30.974Z,12.89
2023-01-05T10:42:25.947Z,12.90
2023-01-05T10:43:25.933Z,12.90
2023-01-05T10:44:25.941Z,12.96
2023-01-05T10:45:25.902Z,12.90
2023-01-05T10:46:33.960Z,12.86
2023-01-05T10:47:26.950Z,12.87
2023-01-05T10:48:25.870Z,12.89
2023-01-05T10:49:25.877Z,13.01
2023-01-05T10:50:25.993Z,13.03
2023-01-05T10:51:25.851Z,13.04
2023-01-05T10:52:30.847Z,13.05
2023-01-05T10:53:25.821Z,13.01
2023-01-05T10:54:25.812Z,13.11
2023-01-05T10:55:25.910Z,13.11
2023-01-05T10:56:25.960Z,13.10
2023-01-05T10:57:31.902Z,13.07
2023-01-05T10:58:26.901Z,13.11
2023-01-05T10:59:25.840Z,13.04
2023-01-05T11:00:25.937Z,13.20
2023-01-05T11:01:25.890Z,13.22
2023-01-05T11:02:25.865Z,13.20
2023-01-05T11:04:04.361Z,13.26
2023-01-05T11:04:34.248Z,13.17
2023-01-05T11:05:26.905Z,13.26
2023-01-05T11:06:25.781Z,13.17
2023-01-05T11:07:25.838Z,13.08
2023-01-05T11:08:25.652Z,13.14
2023-01-05T11:09:25.646Z,13.07
2023-01-05T11:10:25.623Z,13.10
2023-01-05T11:11:25.622Z,13.19
2023-01-05T11:12:25.602Z,13.07
2023-01-05T11:13:25.593Z,13.14
2023-01-05T11:14:30.619Z,13.17
2023-01-05T11:15:25.605Z,13.30
2023-01-05T11:16:25.613Z,13.26
2023-01-05T11:17:25.559Z,13.30
2023-01-05T11:18:25.586Z,13.25
2023-01-05T11:19:25.568Z,13.17
2023-01-05T11:20:25.541Z,13.20
2023-01-05T11:21:25.503Z,13.22
2023-01-05T11:22:25.617Z,13.30
2023-01-05T11:23:25.483Z,13.28
2023-01-05T11:24:25.491Z,13.23
2023-01-05T11:25:30.592Z,13.11
2023-01-05T11:26:25.447Z,13.15
2023-01-05T11:27:25.436Z,13.17
2023-01-05T11:28:25.427Z,13.14
2023-01-05T11:29:25.422Z,13.04
2023-01-05T11:30:25.466Z,13.11
2023-01-05T11:31:25.429Z,13.12
2023-01-05T11:32:25.392Z,13.07
2023-01-05T11:33:25.931Z,13.12
2023-01-05T11:34:25.373Z,13.04
2023-01-05T11:35:25.387Z,13.11
2023-01-05T11:36:30.610Z,13.08
2023-01-05T11:37:25.337Z,13.07
2023-01-05T11:38:25.513Z,13.01
2023-01-05T11:39:25.320Z,13.04
2023-01-05T11:40:25.356Z,13.03
2023-01-05T11:41:25.288Z,13.05
2023-01-05T11:42:26.318Z,13.04
2023-01-05T11:43:25.263Z,13.08
2023-01-05T11:44:25.256Z,13.05
2023-01-05T11:45:25.273Z,13.12
2023-01-05T11:46:25.267Z,13.04
2023-01-05T11:47:30.596Z,13.04
2023-01-05T11:48:25.212Z,13.03
2023-01-05T11:49:25.293Z,13.08
2023-01-05T11:50:25.274Z,13.08
2023-01-05T11:51:27.820Z,13.10
2023-01-05T11:52:25.211Z,13.07
2023-01-05T11:53:25.158Z,13.11
2023-01-05T11:54:25.283Z,13.10
2023-01-05T11:55:25.166Z,13.04
2023-01-05T11:56:25.119Z,13.12
2023-01-05T11:57:25.113Z,13.11
2023-01-05T11:58:30.359Z,13.07
2023-01-05T11:59:25.091Z,13.12
2023-01-05T12:00:25.111Z,13.08
2023-01-05T12:01:25.130Z,13.10
2023-01-05T12:02:25.117Z,13.15
2023-01-05T12:03:25.105Z,13.04
2023-01-05T12:04:25.114Z,13.03
2023-01-05T12:05:25.060Z,13.17
2023-01-05T12:06:25.032Z,13.15
2023-01-05T12:07:25.000Z,13.14
2023-01-05T12:08:24.990Z,13.12
2023-01-05T12:09:34.697Z,13.17
2023-01-05T12:10:25.967Z,13.23
2023-01-05T12:11:24.964Z,13.15
2023-01-05T12:12:24.955Z,13.20
2023-01-05T12:13:24.935Z,13.28
2023-01-05T12:14:24.923Z,13.23
2023-01-05T12:15:24.912Z,13.07
2023-01-05T12:16:24.935Z,13.08
2023-01-05T12:17:24.894Z,13.12
2023-01-05T12:18:24.926Z,13.14
2023-01-05T12:19:24.869Z,13.07
2023-01-05T12:20:29.896Z,13.03
2023-01-05T12:21:24.877Z,13.04
2023-01-05T12:22:24.856Z,13.05
2023-01-05T12:23:24.822Z,13.12
2023-01-05T12:24:24.809Z,13.05
2023-01-05T12:25:24.938Z,13.12
2023-01-05T12:26:24.812Z,13.11
2023-01-05T12:27:24.776Z,13.10
2023-01-05T12:28:40.438Z,13.05
2023-01-05T12:32:33.967Z,12.92
2023-01-05T12:34:25.702Z,12.97
2023-01-05T12:35:24.730Z,12.95
2023-01-05T12:36:24.694Z,13.03
2023-01-05T12:37:24.674Z,13.07
2023-01-05T12:38:24.654Z,13.04
2023-01-05T12:39:28.384Z,13.03
2023-01-05T12:40:25.633Z,13.04
2023-01-05T12:41:24.771Z,12.96
2023-01-05T12:42:29.745Z,12.92
2023-01-05T12:43:24.623Z,13.03
2023-01-05T12:44:24.592Z,13.03
2023-01-05T12:45:31.606Z,13.01
2023-01-05T12:46:25.664Z,13.01
2023-01-05T12:47:24.565Z,13.01
2023-01-05T12:48:24.548Z,13.07
2023-01-05T12:49:24.532Z,13.04
2023-01-05T12:50:25.608Z,13.04
2023-01-05T12:51:24.531Z,12.96
2023-01-05T12:52:24.502Z,13.07
2023-01-05T12:53:29.513Z,13.08
2023-01-05T12:54:24.479Z,13.05
2023-01-05T12:55:24.472Z,13.10
2023-01-05T12:56:24.458Z,13.12
2023-01-05T12:57:24.585Z,13.15
2023-01-05T12:58:24.439Z,13.17
2023-01-05T12:59:24.425Z,13.07
2023-01-05T13:00:24.540Z,13.17
2023-01-05T13:01:24.504Z,13.15
2023-01-05T13:02:24.576Z,13.08
2023-01-05T13:03:24.395Z,13.12
2023-01-05T13:04:36.324Z,13.15
2023-01-05T13:05:25.391Z,13.17
2023-01-05T13:06:24.354Z,13.11
2023-01-05T13:07:24.360Z,13.15
2023-01-05T13:08:24.331Z,13.20
2023-01-05T13:09:24.319Z,13.07
2023-01-05T13:10:24.315Z,13.15
2023-01-05T13:11:24.316Z,13.11
2023-01-05T13:12:24.389Z,13.08
2023-01-05T13:13:24.387Z,13.10
2023-01-05T13:14:24.280Z,13.03
2023-01-05T13:15:29.269Z,13.04
2023-01-05T13:16:24.269Z,13.14
2023-01-05T13:17:24.251Z,13.14
2023-01-05T13:18:24.217Z,13.07
2023-01-05T13:19:24.209Z,13.04
2023-01-05T13:20:24.209Z,13.03
2023-01-05T13:21:24.206Z,12.97
2023-01-05T13:22:24.173Z,13.07
2023-01-05T13:23:24.169Z,13.05
2023-01-05T13:24:24.159Z,13.04
2023-01-05T13:25:24.141Z,13.04
2023-01-05T13:26:34.192Z,13.04
2023-01-05T13:27:25.116Z,13.08
2023-01-05T13:28:25.995Z,13.07
2023-01-05T13:29:24.255Z,13.12
2023-01-05T13:30:24.091Z,13.07
2023-01-05T13:31:24.165Z,13.01
2023-01-05T13:32:24.070Z,13.03
2023-01-05T13:33:24.058Z,13.00
2023-01-05T13:34:24.048Z,13.08
2023-01-05T13:35:25.036Z,12.96
2023-01-05T13:36:24.037Z,13.05
2023-01-05T13:37:29.033Z,12.97
2023-01-05T13:38:24.006Z,12.96
2023-01-05T13:39:23.991Z,12.93
2023-01-05T13:40:23.975Z,13.00
2023-01-05T13:41:23.997Z,12.89
2023-01-05T13:42:23.960Z,12.96
2023-01-05T13:43:23.952Z,12.90
2023-01-05T13:44:23.969Z,12.96
2023-01-05T13:45:24.073Z,13.00
2023-01-05T13:46:23.958Z,13.01
2023-01-05T13:47:27.726Z,13.00
2023-01-05T13:48:38.440Z,13.00
2023-01-05T13:49:24.896Z,13.03
2023-01-05T13:50:23.882Z,13.01
2023-01-05T13:51:23.865Z,13.03
2023-01-05T13:52:23.847Z,13.03
2023-01-05T13:54:23.833Z,13.03
2023-01-05T13:55:26.149Z,12.97
2023-01-05T13:56:23.851Z,13.01
2023-01-05T13:57:23.791Z,13.04
2023-01-05T13:58:23.886Z,12.92
2023-01-05T13:59:35.160Z,13.03
2023-01-05T14:00:24.829Z,12.92
2023-01-05T14:01:23.895Z,12.96
2023-01-05T14:02:23.744Z,12.97
2023-01-05T14:03:23.748Z,12.90
2023-01-05T14:04:23.711Z,13.00
2023-01-05T14:05:23.699Z,13.03
2023-01-05T14:06:23.726Z,13.01
2023-01-05T14:07:23.674Z,12.87
2023-01-05T14:08:23.667Z,13.03
2023-01-05T14:09:23.678Z,12.93
2023-01-05T14:10:28.670Z,12.90
2023-01-05T14:11:23.663Z,13.01
2023-01-05T14:12:23.689Z,13.03
2023-01-05T14:13:23.616Z,13.05
2023-01-05T14:14:23.623Z,13.01
2023-01-05T14:15:23.693Z,13.01
2023-01-05T14:16:23.649Z,13.01
2023-01-05T14:17:23.679Z,13.04
2023-01-05T14:18:23.559Z,13.04
2023-01-05T14:19:23.561Z,13.12
2023-01-05T14:20:23.533Z,13.00
2023-01-05T14:21:28.560Z,12.97
2023-01-05T14:22:23.578Z,13.03
2023-01-05T14:23:23.629Z,13.03
2023-01-05T14:24:23.497Z,12.97
2023-01-05T14:25:23.484Z,13.05
2023-01-05T14:26:23.482Z,12.96
2023-01-05T14:27:23.491Z,13.00
2023-01-05T14:28:23.479Z,13.03
2023-01-05T14:29:23.435Z,12.97
2023-01-05T14:30:23.434Z,13.00
2023-01-05T14:31:23.452Z,12.97
2023-01-05T14:32:28.534Z,12.96
2023-01-05T14:33:23.403Z,13.01
2023-01-05T14:34:23.393Z,12.96
2023-01-05T14:35:23.362Z,13.03
2023-01-05T14:36:23.401Z,13.03
2023-01-05T14:37:23.361Z,12.96
2023-01-05T14:38:23.378Z,13.03
2023-01-05T14:39:23.461Z,13.04
2023-01-05T14:40:23.339Z,13.03
2023-01-05T14:41:25.230Z,12.90
2023-01-05T14:42:23.296Z,12.96
2023-01-05T14:43:28.329Z,13.00
2023-01-05T14:44:23.287Z,13.00
2023-01-05T14:45:23.340Z,12.95
2023-01-05T14:46:23.261Z,12.89
2023-01-05T14:47:23.687Z,12.90
2023-01-05T14:48:23.443Z,12.89
2023-01-05T14:49:23.402Z,12.92
2023-01-05T14:50:23.405Z,12.87
2023-01-05T14:51:23.276Z,12.87
2023-01-05T14:52:23.182Z,12.87
2023-01-05T14:53:23.167Z,12.82
2023-01-05T14:54:28.187Z,12.79
2023-01-05T14:55:37.205Z,12.74
2023-01-05T14:56:24.221Z,12.82
2023-01-05T14:57:23.128Z,12.78
2023-01-05T14:58:23.116Z,12.75
2023-01-05T14:59:23.117Z,12.67
2023-01-05T15:00:23.153Z,12.71
2023-01-05T15:01:23.095Z,12.68
2023-01-05T15:02:23.152Z,12.75
2023-01-05T15:03:23.151Z,12.72
2023-01-05T15:04:23.162Z,12.71
2023-01-05T15:05:28.061Z,12.75
2023-01-05T15:06:23.048Z,12.77
2023-01-05T15:07:23.021Z,12.71
2023-01-05T15:08:24.005Z,12.71
2023-01-05T15:09:22.987Z,12.71
2023-01-05T15:10:22.979Z,12.72
2023-01-05T15:11:22.988Z,12.67
2023-01-05T15:12:22.966Z,12.65
2023-01-05T15:13:22.966Z,12.62
2023-01-05T15:14:22.971Z,12.67
2023-01-05T15:15:22.925Z,12.65
2023-01-05T15:16:27.954Z,12.68
2023-01-05T15:17:22.902Z,12.67
2023-01-05T15:18:23.177Z,12.68
2023-01-05T15:19:22.905Z,12.71
2023-01-05T15:20:22.993Z,12.71
2023-01-05T15:21:22.861Z,12.65
2023-01-05T15:22:37.094Z,12.67
2023-01-05T15:23:23.887Z,12.74
2023-01-05T15:24:22.824Z,12.68
2023-01-05T15:25:22.839Z,12.72
2023-01-05T15:26:22.830Z,12.68
2023-01-05T15:27:27.808Z,12.68
2023-01-05T15:28:22.863Z,12.65
2023-01-05T15:29:22.765Z,12.68
2023-01-05T15:30:22.772Z,12.65
2023-01-05T15:31:23.039Z,12.57
2023-01-05T15:32:22.785Z,12.60
2023-01-05T15:33:22.758Z,12.67
2023-01-05T15:34:22.735Z,12.67
2023-01-05T15:35:22.712Z,12.65
2023-01-05T15:36:22.819Z,12.57
2023-01-05T15:37:22.708Z,12.64
2023-01-05T15:38:27.738Z,12.60
2023-01-05T15:39:23.701Z,12.54
2023-01-05T15:40:23.706Z,12.64
2023-01-05T15:41:22.646Z,12.60
2023-01-05T15:42:24.367Z,12.62
2023-01-05T15:43:22.619Z,12.59
2023-01-05T15:44:23.614Z,12.62
2023-01-05T15:45:23.584Z,12.60
2023-01-05T15:46:22.599Z,12.62
2023-01-05T15:47:22.570Z,12.62
2023-01-05T15:48:22.584Z,12.56
2023-01-05T15:49:27.567Z,12.56
2023-01-05T15:50:22.544Z,12.60
2023-01-05T15:51:22.566Z,12.59
2023-01-05T15:52:22.652Z,12.54
2023-01-05T15:53:22.515Z,12.60
2023-01-05T15:54:22.515Z,12.53
2023-01-05T15:55:22.477Z,12.54
2023-01-05T15:56:22.532Z,12.56
2023-01-05T15:57:22.472Z,12.59
2023-01-05T15:58:22.446Z,12.53
2023-01-05T15:59:22.491Z,12.52
2023-01-05T16:00:27.450Z,12.56
2023-01-05T16:01:22.438Z,12.54
2023-01-05T16:02:22.512Z,12.59
2023-01-05T16:03:22.389Z,12.49
2023-01-05T16:04:22.437Z,12.50
2023-01-05T16:05:22.382Z,12.53
2023-01-05T16:06:22.406Z,12.46
2023-01-05T16:07:22.365Z,12.47
2023-01-05T16:08:22.479Z,12.53
2023-01-05T16:09:22.321Z,12.52
2023-01-05T16:10:22.339Z,12.50
2023-01-05T16:11:27.334Z,12.50
2023-01-05T16:12:23.477Z,12.42
2023-01-05T16:13:22.318Z,12.49
2023-01-05T16:14:22.345Z,12.46
2023-01-05T16:15:22.271Z,12.45
2023-01-05T16:16:50.620Z,12.45
2023-01-05T16:17:23.342Z,12.46
2023-01-05T16:18:22.220Z,12.45
2023-01-05T16:19:22.236Z,12.46
2023-01-05T16:20:22.211Z,12.46
2023-01-05T16:21:22.188Z,12.45
2023-01-05T16:22:27.255Z,12.46
2023-01-05T16:23:22.162Z,12.45
2023-01-05T16:24:22.269Z,12.45
2023-01-05T16:25:22.167Z,12.46
2023-01-05T16:26:22.160Z,12.39
2023-01-05T16:27:22.159Z,12.42
2023-01-05T16:28:22.155Z,12.45
2023-01-05T16:29:22.103Z,12.42
2023-01-05T16:30:22.090Z,12.46
2023-01-05T16:31:22.072Z,12.46
2023-01-05T16:32:22.077Z,12.47
2023-01-05T16:33:27.073Z,12.41
2023-01-05T16:34:22.042Z,12.38
2023-01-05T16:35:23.041Z,12.47
2023-01-05T16:36:22.040Z,12.37
2023-01-05T16:37:22.024Z,12.38
2023-01-05T16:38:22.031Z,12.38
2023-01-05T16:39:21.993Z,12.38
2023-01-05T16:40:22.202Z,12.37
2023-01-05T16:41:21.960Z,12.39
2023-01-05T16:42:21.980Z,12.47
2023-01-05T16:43:21.988Z,12.31
2023-01-05T16:44:27.948Z,12.45
2023-01-05T16:45:21.918Z,12.42
2023-01-05T16:46:21.946Z,12.35
2023-01-05T16:47:21.906Z,12.35
2023-01-05T16:48:21.935Z,12.41
2023-01-05T16:49:21.879Z,12.37
2023-01-05T16:50:21.860Z,12.34
2023-01-05T16:51:21.884Z,12.35
2023-01-05T16:52:23.830Z,12.41
2023-01-05T16:53:23.819Z,12.24
2023-01-05T16:54:22.795Z,12.38
2023-01-05T16:55:28.831Z,12.35
2023-01-05T16:56:21.799Z,12.35
2023-01-05T16:57:21.807Z,12.35
2023-01-05T16:58:21.795Z,12.27
2023-01-05T16:59:21.772Z,12.24
2023-01-05T17:00:21.855Z,12.27
2023-01-05T17:01:21.874Z,12.31
2023-01-05T17:02:21.735Z,12.37
2023-01-05T17:03:21.826Z,12.28
2023-01-05T17:04:21.804Z,12.24
2023-01-05T17:05:21.740Z,12.34
2023-01-05T17:06:26.707Z,12.34
2023-01-05T17:07:21.675Z,12.32
2023-01-05T17:08:21.680Z,12.24
2023-01-05T17:09:21.659Z,12.12
2023-01-05T17:10:22.638Z,12.13
2023-01-05T17:11:21.776Z,12.17
2023-01-05T17:12:21.682Z,12.12
2023-01-05T17:13:21.656Z,12.13
2023-01-05T17:14:21.608Z,12.10
2023-01-05T17:15:21.590Z,12.17
2023-01-05T17:16:21.757Z,12.10
2023-01-05T17:17:26.594Z,12.12
2023-01-05T17:19:21.644Z,12.10
2023-01-05T17:20:21.571Z,12.14
2023-01-05T17:21:21.555Z,12.14
2023-01-05T17:22:21.521Z,12.12
2023-01-05T17:23:21.514Z,11.99
2023-01-05T17:24:21.494Z,11.96
2023-01-05T17:25:21.513Z,12.01
2023-01-05T17:26:21.465Z,11.96
2023-01-05T17:27:21.604Z,11.99
2023-01-05T17:28:26.569Z,11.99
2023-01-05T17:29:21.438Z,12.04
2023-01-05T17:30:21.437Z,11.96
2023-01-05T17:31:21.412Z,11.96
2023-01-05T17:32:21.410Z,12.05
2023-01-05T17:33:21.404Z,11.99
2023-01-05T17:34:21.390Z,12.04
2023-01-05T17:35:22.367Z,11.98
2023-01-05T17:36:21.393Z,12.07
2023-01-05T17:37:21.351Z,12.09
2023-01-05T17:38:21.345Z,11.98
2023-01-05T17:39:26.374Z,12.07
2023-01-05T17:40:21.430Z,11.99
2023-01-05T17:41:21.298Z,12.04
2023-01-05T17:42:22.735Z,12.05
2023-01-05T17:43:21.405Z,12.05
2023-01-05T17:44:21.269Z,11.99
2023-01-05T17:45:21.277Z,12.05
2023-01-05T17:46:21.325Z,12.10
2023-01-05T17:47:21.264Z,12.10
2023-01-05T17:48:21.260Z,12.12
2023-01-05T17:49:21.213Z,12.01
2023-01-05T17:50:26.299Z,12.05
2023-01-05T17:51:21.196Z,11.99
2023-01-05T17:52:21.176Z,12.02
2023-01-05T17:53:21.223Z,12.02
2023-01-05T17:54:21.185Z,12.02
2023-01-05T17:55:22.073Z,12.07
2023-01-05T17:56:21.157Z,12.02
2023-01-05T17:57:21.119Z,12.09
2023-01-05T17:58:21.128Z,12.10
2023-01-05T17:59:21.305Z,11.98
2023-01-05T18:00:22.151Z,12.04
2023-01-05T18:01:26.125Z,11.96